sensor_id;sensor_type;location;lat;lon;timestamp;temperature;humidity
64858;SHT30;51335;51.148;6.950;2022-07-29T00:00:26;19.39;58.67
64858;SHT30;51335;51.148;6.950;2022-07-29T00:00:56;19.43;58.60
64858;SHT30;51335;51.148;6.950;2022-07-29T00:01:27;19.42;58.59
64858;SHT30;51335;51.148;6.950;2022-07-29T00:01:57;19.42;58.56
64858;SHT30;51335;51.148;6.950;2022-07-29T00:02:28;19.42;58.54
64858;SHT30;51335;51.148;6.950;2022-07-29T00:02:58;19.40;58.59
64858;SHT30;51335;51.148;6.950;2022-07-29T00:03:28;19.43;58.61
64858;SHT30;51335;51.148;6.950;2022-07-29T00:03:59;19.43;58.69
64858;SHT30;51335;51.148;6.950;2022-07-29T00:04:29;19.42;58.63
64858;SHT30;51335;51.148;6.950;2022-07-29T00:04:59;19.40;58.65
64858;SHT30;51335;51.148;6.950;2022-07-29T00:05:30;19.45;58.57
64858;SHT30;51335;51.148;6.950;2022-07-29T00:06:00;19.43;58.72
64858;SHT30;51335;51.148;6.950;2022-07-29T00:06:30;19.42;58.49
64858;SHT30;51335;51.148;6.950;2022-07-29T00:07:01;19.42;58.50
64858;SHT30;51335;51.148;6.950;2022-07-29T00:07:31;19.42;58.56
64858;SHT30;51335;51.148;6.950;2022-07-29T00:08:02;19.38;58.63
64858;SHT30;51335;51.148;6.950;2022-07-29T00:08:32;19.39;58.72
64858;SHT30;51335;51.148;6.950;2022-07-29T00:09:02;19.38;58.71
64858;SHT30;51335;51.148;6.950;2022-07-29T00:09:33;19.38;58.74
64858;SHT30;51335;51.148;6.950;2022-07-29T00:10:04;19.36;58.82
64858;SHT30;51335;51.148;6.950;2022-07-29T00:10:35;19.38;58.76
64858;SHT30;51335;51.148;6.950;2022-07-29T00:11:05;19.35;58.73
64858;SHT30;51335;51.148;6.950;2022-07-29T00:11:35;19.36;58.70
64858;SHT30;51335;51.148;6.950;2022-07-29T00:12:06;19.36;58.99
64858;SHT30;51335;51.148;6.950;2022-07-29T00:12:36;19.33;59.06
64858;SHT30;51335;51.148;6.950;2022-07-29T00:13:06;19.32;59.30
64858;SHT30;51335;51.148;6.950;2022-07-29T00:13:37;19.30;59.24
64858;SHT30;51335;51.148;6.950;2022-07-29T00:14:08;19.29;59.08
64858;SHT30;51335;51.148;6.950;2022-07-29T00:14:38;19.28;59.16
64858;SHT30;51335;51.148;6.950;2022-07-29T00:15:09;19.33;59.33
64858;SHT30;51335;51.148;6.950;2022-07-29T00:15:39;19.32;59.26
64858;SHT30;51335;51.148;6.950;2022-07-29T00:16:09;19.33;59.30
64858;SHT30;51335;51.148;6.950;2022-07-29T00:16:40;19.36;59.26
64858;SHT30;51335;51.148;6.950;2022-07-29T00:17:10;19.40;59.37
64858;SHT30;51335;51.148;6.950;2022-07-29T00:17:40;19.40;59.50
64858;SHT30;51335;51.148;6.950;2022-07-29T00:18:10;19.45;59.20
64858;SHT30;51335;51.148;6.950;2022-07-29T00:18:41;19.53;58.97
64858;SHT30;51335;51.148;6.950;2022-07-29T00:19:11;19.50;59.37
64858;SHT30;51335;51.148;6.950;2022-07-29T00:19:42;19.46;60.21
64858;SHT30;51335;51.148;6.950;2022-07-29T00:20:12;19.42;60.47
64858;SHT30;51335;51.148;6.950;2022-07-29T00:20:42;19.38;60.30
64858;SHT30;51335;51.148;6.950;2022-07-29T00:21:13;19.38;60.20
64858;SHT30;51335;51.148;6.950;2022-07-29T00:21:43;19.40;59.86
64858;SHT30;51335;51.148;6.950;2022-07-29T00:22:14;19.43;59.90
64858;SHT30;51335;51.148;6.950;2022-07-29T00:22:45;19.39;59.89
64858;SHT30;51335;51.148;6.950;2022-07-29T00:23:15;19.35;60.01
64858;SHT30;51335;51.148;6.950;2022-07-29T00:23:45;19.32;60.01
64858;SHT30;51335;51.148;6.950;2022-07-29T00:24:15;19.28;60.10
64858;SHT30;51335;51.148;6.950;2022-07-29T00:24:49;19.21;60.35
64858;SHT30;51335;51.148;6.950;2022-07-29T00:25:19;19.16;60.59
64858;SHT30;51335;51.148;6.950;2022-07-29T00:25:49;19.14;60.73
64858;SHT30;51335;51.148;6.950;2022-07-29T00:26:20;19.11;60.89
64858;SHT30;51335;51.148;6.950;2022-07-29T00:26:50;19.07;60.97
64858;SHT30;51335;51.148;6.950;2022-07-29T00:27:20;19.02;61.01
64858;SHT30;51335;51.148;6.950;2022-07-29T00:27:50;18.98;61.06
64858;SHT30;51335;51.148;6.950;2022-07-29T00:28:21;18.98;61.16
64858;SHT30;51335;51.148;6.950;2022-07-29T00:28:51;18.94;61.19
64858;SHT30;51335;51.148;6.950;2022-07-29T00:29:22;18.94;61.65
64858;SHT30;51335;51.148;6.950;2022-07-29T00:29:52;18.91;62.02
64858;SHT30;51335;51.148;6.950;2022-07-29T00:30:22;18.90;62.04
64858;SHT30;51335;51.148;6.950;2022-07-29T00:30:53;18.87;61.85
64858;SHT30;51335;51.148;6.950;2022-07-29T00:31:23;18.84;61.78
64858;SHT30;51335;51.148;6.950;2022-07-29T00:31:53;18.84;61.75
64858;SHT30;51335;51.148;6.950;2022-07-29T00:32:23;18.84;61.70
64858;SHT30;51335;51.148;6.950;2022-07-29T00:32:54;18.81;61.58
64858;SHT30;51335;51.148;6.950;2022-07-29T00:33:24;18.80;61.66
64858;SHT30;51335;51.148;6.950;2022-07-29T00:33:55;18.88;61.58
64858;SHT30;51335;51.148;6.950;2022-07-29T00:34:25;18.95;61.17
64858;SHT30;51335;51.148;6.950;2022-07-29T00:34:55;19.04;60.71
64858;SHT30;51335;51.148;6.950;2022-07-29T00:35:26;19.02;60.92
64858;SHT30;51335;51.148;6.950;2022-07-29T00:35:56;19.00;61.24
64858;SHT30;51335;51.148;6.950;2022-07-29T00:36:26;18.95;61.36
64858;SHT30;51335;51.148;6.950;2022-07-29T00:36:57;18.92;61.52
64858;SHT30;51335;51.148;6.950;2022-07-29T00:37:27;18.91;61.63
64858;SHT30;51335;51.148;6.950;2022-07-29T00:37:57;18.90;61.68
64858;SHT30;51335;51.148;6.950;2022-07-29T00:38:28;18.84;61.80
64858;SHT30;51335;51.148;6.950;2022-07-29T00:38:58;18.81;62.11
64858;SHT30;51335;51.148;6.950;2022-07-29T00:39:29;18.80;62.34
64858;SHT30;51335;51.148;6.950;2022-07-29T00:39:59;18.78;62.44
64858;SHT30;51335;51.148;6.950;2022-07-29T00:40:29;18.72;62.61
64858;SHT30;51335;51.148;6.950;2022-07-29T00:40:59;18.70;62.75
64858;SHT30;51335;51.148;6.950;2022-07-29T00:41:30;18.67;62.52
64858;SHT30;51335;51.148;6.950;2022-07-29T00:42:03;18.64;62.67
64858;SHT30;51335;51.148;6.950;2022-07-29T00:42:43;18.63;62.57
64858;SHT30;51335;51.148;6.950;2022-07-29T00:43:14;18.61;62.34
64858;SHT30;51335;51.148;6.950;2022-07-29T00:43:45;18.61;62.28
64858;SHT30;51335;51.148;6.950;2022-07-29T00:44:15;18.61;62.33
64858;SHT30;51335;51.148;6.950;2022-07-29T00:44:45;18.60;62.33
64858;SHT30;51335;51.148;6.950;2022-07-29T00:45:16;18.56;62.39
64858;SHT30;51335;51.148;6.950;2022-07-29T00:45:47;18.57;62.37
64858;SHT30;51335;51.148;6.950;2022-07-29T00:46:17;18.59;62.19
64858;SHT30;51335;51.148;6.950;2022-07-29T00:46:48;18.59;62.27
64858;SHT30;51335;51.148;6.950;2022-07-29T00:47:18;18.57;62.16
64858;SHT30;51335;51.148;6.950;2022-07-29T00:47:48;18.57;62.16
64858;SHT30;51335;51.148;6.950;2022-07-29T00:48:19;18.59;62.19
64858;SHT30;51335;51.148;6.950;2022-07-29T00:48:49;18.56;62.30
64858;SHT30;51335;51.148;6.950;2022-07-29T00:49:19;18.54;62.40
64858;SHT30;51335;51.148;6.950;2022-07-29T00:49:50;18.56;62.69
64858;SHT30;51335;51.148;6.950;2022-07-29T00:50:20;18.56;62.97
64858;SHT30;51335;51.148;6.950;2022-07-29T00:50:50;18.53;63.56
64858;SHT30;51335;51.148;6.950;2022-07-29T00:51:21;18.54;64.33
64858;SHT30;51335;51.148;6.950;2022-07-29T00:51:51;18.52;65.05
64858;SHT30;51335;51.148;6.950;2022-07-29T00:52:21;18.49;65.55
64858;SHT30;51335;51.148;6.950;2022-07-29T00:52:52;18.44;66.00
64858;SHT30;51335;51.148;6.950;2022-07-29T00:53:23;18.44;66.64
64858;SHT30;51335;51.148;6.950;2022-07-29T00:53:54;18.40;67.27
64858;SHT30;51335;51.148;6.950;2022-07-29T00:54:25;18.39;67.55
64858;SHT30;51335;51.148;6.950;2022-07-29T00:54:55;18.34;67.70
64858;SHT30;51335;51.148;6.950;2022-07-29T00:55:26;18.33;67.89
64858;SHT30;51335;51.148;6.950;2022-07-29T00:55:58;18.29;67.93
64858;SHT30;51335;51.148;6.950;2022-07-29T00:56:30;18.28;67.91
64858;SHT30;51335;51.148;6.950;2022-07-29T00:57:01;18.26;68.13
64858;SHT30;51335;51.148;6.950;2022-07-29T00:57:32;18.22;68.23
64858;SHT30;51335;51.148;6.950;2022-07-29T00:58:03;18.21;68.28
64858;SHT30;51335;51.148;6.950;2022-07-29T00:58:33;18.16;68.35
64858;SHT30;51335;51.148;6.950;2022-07-29T00:59:03;18.16;68.38
64858;SHT30;51335;51.148;6.950;2022-07-29T00:59:34;18.12;68.42
64858;SHT30;51335;51.148;6.950;2022-07-29T01:00:06;18.12;68.55
64858;SHT30;51335;51.148;6.950;2022-07-29T01:00:37;18.09;68.54
64858;SHT30;51335;51.148;6.950;2022-07-29T01:01:07;18.06;68.60
64858;SHT30;51335;51.148;6.950;2022-07-29T01:01:38;18.06;68.62
64858;SHT30;51335;51.148;6.950;2022-07-29T01:02:08;18.05;68.63
64858;SHT30;51335;51.148;6.950;2022-07-29T01:02:38;18.05;68.53
64858;SHT30;51335;51.148;6.950;2022-07-29T01:03:09;18.03;68.40
64858;SHT30;51335;51.148;6.950;2022-07-29T01:03:39;18.01;68.32
64858;SHT30;51335;51.148;6.950;2022-07-29T01:04:09;17.99;68.43
64858;SHT30;51335;51.148;6.950;2022-07-29T01:04:40;17.99;68.51
64858;SHT30;51335;51.148;6.950;2022-07-29T01:05:11;17.96;68.53
64858;SHT30;51335;51.148;6.950;2022-07-29T01:05:43;17.96;68.47
64858;SHT30;51335;51.148;6.950;2022-07-29T01:06:15;17.95;68.37
64858;SHT30;51335;51.148;6.950;2022-07-29T01:06:47;17.95;68.14
64858;SHT30;51335;51.148;6.950;2022-07-29T01:07:18;17.95;67.94
64858;SHT30;51335;51.148;6.950;2022-07-29T01:07:51;17.96;68.05
64858;SHT30;51335;51.148;6.950;2022-07-29T01:08:22;17.95;68.20
64858;SHT30;51335;51.148;6.950;2022-07-29T01:08:53;17.96;67.97
64858;SHT30;51335;51.148;6.950;2022-07-29T01:09:24;17.98;67.69
64858;SHT30;51335;51.148;6.950;2022-07-29T01:09:54;17.96;67.63
64858;SHT30;51335;51.148;6.950;2022-07-29T01:10:25;17.91;67.67
64858;SHT30;51335;51.148;6.950;2022-07-29T01:10:56;17.92;67.77
64858;SHT30;51335;51.148;6.950;2022-07-29T01:11:27;17.95;67.91
64858;SHT30;51335;51.148;6.950;2022-07-29T01:11:57;17.94;67.86
64858;SHT30;51335;51.148;6.950;2022-07-29T01:12:30;17.92;67.82
64858;SHT30;51335;51.148;6.950;2022-07-29T01:13:01;17.92;67.82
64858;SHT30;51335;51.148;6.950;2022-07-29T01:13:32;17.95;67.96
64858;SHT30;51335;51.148;6.950;2022-07-29T01:14:03;17.94;68.06
64858;SHT30;51335;51.148;6.950;2022-07-29T01:14:37;17.94;68.20
64858;SHT30;51335;51.148;6.950;2022-07-29T01:15:08;17.91;68.39
64858;SHT30;51335;51.148;6.950;2022-07-29T01:15:44;17.96;68.79
64858;SHT30;51335;51.148;6.950;2022-07-29T01:16:31;17.95;69.20
64858;SHT30;51335;51.148;6.950;2022-07-29T01:17:15;17.94;69.16
64858;SHT30;51335;51.148;6.950;2022-07-29T01:17:50;17.92;69.15
64858;SHT30;51335;51.148;6.950;2022-07-29T01:18:30;17.92;69.06
64858;SHT30;51335;51.148;6.950;2022-07-29T01:21:53;17.82;68.43
64858;SHT30;51335;51.148;6.950;2022-07-29T01:22:46;17.85;68.60
64858;SHT30;51335;51.148;6.950;2022-07-29T01:25:30;17.85;69.96
64858;SHT30;51335;51.148;6.950;2022-07-29T01:29:32;17.95;68.67
64858;SHT30;51335;51.148;6.950;2022-07-29T01:30:05;17.95;68.47
64858;SHT30;51335;51.148;6.950;2022-07-29T01:30:37;17.91;68.53
64858;SHT30;51335;51.148;6.950;2022-07-29T01:31:09;17.85;68.63
64858;SHT30;51335;51.148;6.950;2022-07-29T01:31:54;17.82;68.84
64858;SHT30;51335;51.148;6.950;2022-07-29T01:32:29;17.77;68.99
64858;SHT30;51335;51.148;6.950;2022-07-29T01:33:03;17.70;69.28
64858;SHT30;51335;51.148;6.950;2022-07-29T01:33:40;17.65;69.47
64858;SHT30;51335;51.148;6.950;2022-07-29T01:34:18;17.63;69.59
64858;SHT30;51335;51.148;6.950;2022-07-29T01:35:12;17.57;69.74
64858;SHT30;51335;51.148;6.950;2022-07-29T01:35:46;17.60;69.79
64858;SHT30;51335;51.148;6.950;2022-07-29T01:36:30;17.55;69.88
64858;SHT30;51335;51.148;6.950;2022-07-29T01:37:09;17.55;69.99
64858;SHT30;51335;51.148;6.950;2022-07-29T01:37:49;17.54;70.09
64858;SHT30;51335;51.148;6.950;2022-07-29T01:38:21;17.51;70.21
64858;SHT30;51335;51.148;6.950;2022-07-29T01:39:02;17.50;70.40
64858;SHT30;51335;51.148;6.950;2022-07-29T01:39:36;17.50;70.46
64858;SHT30;51335;51.148;6.950;2022-07-29T01:40:40;17.45;70.62
64858;SHT30;51335;51.148;6.950;2022-07-29T01:41:15;17.44;70.83
64858;SHT30;51335;51.148;6.950;2022-07-29T01:41:50;17.45;71.05
64858;SHT30;51335;51.148;6.950;2022-07-29T01:42:32;17.44;71.27
64858;SHT30;51335;51.148;6.950;2022-07-29T01:43:11;17.43;71.54
64858;SHT30;51335;51.148;6.950;2022-07-29T01:43:56;17.40;71.86
64858;SHT30;51335;51.148;6.950;2022-07-29T01:44:34;17.38;72.04
64858;SHT30;51335;51.148;6.950;2022-07-29T01:45:44;17.36;72.50
64858;SHT30;51335;51.148;6.950;2022-07-29T01:46:34;17.34;72.81
64858;SHT30;51335;51.148;6.950;2022-07-29T01:47:17;17.34;73.03
64858;SHT30;51335;51.148;6.950;2022-07-29T01:48:02;17.30;73.17
64858;SHT30;51335;51.148;6.950;2022-07-29T01:48:53;17.28;73.35
64858;SHT30;51335;51.148;6.950;2022-07-29T01:49:30;17.24;73.46
64858;SHT30;51335;51.148;6.950;2022-07-29T01:50:07;17.26;73.51
64858;SHT30;51335;51.148;6.950;2022-07-29T01:50:56;17.24;73.69
64858;SHT30;51335;51.148;6.950;2022-07-29T01:51:33;17.24;73.75
64858;SHT30;51335;51.148;6.950;2022-07-29T01:52:11;17.26;73.73
64858;SHT30;51335;51.148;6.950;2022-07-29T01:53:09;17.23;73.87
64858;SHT30;51335;51.148;6.950;2022-07-29T01:54:29;17.17;73.94
64858;SHT30;51335;51.148;6.950;2022-07-29T01:55:02;17.20;73.92
64858;SHT30;51335;51.148;6.950;2022-07-29T01:55:38;17.20;73.84
64858;SHT30;51335;51.148;6.950;2022-07-29T01:56:10;17.22;73.96
64858;SHT30;51335;51.148;6.950;2022-07-29T01:56:43;17.22;73.78
64858;SHT30;51335;51.148;6.950;2022-07-29T01:57:16;17.28;73.23
64858;SHT30;51335;51.148;6.950;2022-07-29T01:57:49;17.30;72.90
64858;SHT30;51335;51.148;6.950;2022-07-29T01:58:20;17.40;72.15
64858;SHT30;51335;51.148;6.950;2022-07-29T01:58:52;17.43;71.84
64858;SHT30;51335;51.148;6.950;2022-07-29T01:59:23;17.43;71.97
64858;SHT30;51335;51.148;6.950;2022-07-29T01:59:56;17.47;71.78
64858;SHT30;51335;51.148;6.950;2022-07-29T02:00:27;17.54;71.35
64858;SHT30;51335;51.148;6.950;2022-07-29T02:00:59;17.54;71.19
64858;SHT30;51335;51.148;6.950;2022-07-29T02:01:32;17.51;71.14
64858;SHT30;51335;51.148;6.950;2022-07-29T02:02:04;17.54;71.27
64858;SHT30;51335;51.148;6.950;2022-07-29T02:02:38;17.60;71.49
64858;SHT30;51335;51.148;6.950;2022-07-29T02:03:11;17.58;71.60
64858;SHT30;51335;51.148;6.950;2022-07-29T02:03:45;17.65;71.45
64858;SHT30;51335;51.148;6.950;2022-07-29T02:04:18;17.65;71.11
64858;SHT30;51335;51.148;6.950;2022-07-29T02:04:50;17.67;71.19
64858;SHT30;51335;51.148;6.950;2022-07-29T02:05:22;17.64;71.20
64858;SHT30;51335;51.148;6.950;2022-07-29T02:05:55;17.61;71.19
64858;SHT30;51335;51.148;6.950;2022-07-29T02:06:27;17.55;71.21
64858;SHT30;51335;51.148;6.950;2022-07-29T02:07:07;17.50;71.36
64858;SHT30;51335;51.148;6.950;2022-07-29T02:07:42;17.47;71.52
64858;SHT30;51335;51.148;6.950;2022-07-29T02:08:13;17.40;71.64
64858;SHT30;51335;51.148;6.950;2022-07-29T02:08:46;17.43;71.68
64858;SHT30;51335;51.148;6.950;2022-07-29T02:09:17;17.37;71.68
64858;SHT30;51335;51.148;6.950;2022-07-29T02:09:50;17.38;71.70
64858;SHT30;51335;51.148;6.950;2022-07-29T02:10:22;17.38;71.80
64858;SHT30;51335;51.148;6.950;2022-07-29T02:10:54;17.34;72.04
64858;SHT30;51335;51.148;6.950;2022-07-29T02:11:25;17.34;72.31
64858;SHT30;51335;51.148;6.950;2022-07-29T02:11:56;17.34;72.60
64858;SHT30;51335;51.148;6.950;2022-07-29T02:12:28;17.41;72.68
64858;SHT30;51335;51.148;6.950;2022-07-29T02:13:00;17.41;72.70
64858;SHT30;51335;51.148;6.950;2022-07-29T02:13:34;17.44;72.83
64858;SHT30;51335;51.148;6.950;2022-07-29T02:14:06;17.45;72.83
64858;SHT30;51335;51.148;6.950;2022-07-29T02:14:44;17.43;73.02
64858;SHT30;51335;51.148;6.950;2022-07-29T02:15:16;17.40;73.08
64858;SHT30;51335;51.148;6.950;2022-07-29T02:15:48;17.38;73.20
64858;SHT30;51335;51.148;6.950;2022-07-29T02:16:21;17.40;73.29
64858;SHT30;51335;51.148;6.950;2022-07-29T02:16:54;17.37;73.42
64858;SHT30;51335;51.148;6.950;2022-07-29T02:17:28;17.34;73.55
64858;SHT30;51335;51.148;6.950;2022-07-29T02:18:37;17.33;73.68
64858;SHT30;51335;51.148;6.950;2022-07-29T02:19:01;17.30;73.80
64858;SHT30;51335;51.148;6.950;2022-07-29T02:19:32;17.28;73.85
64858;SHT30;51335;51.148;6.950;2022-07-29T02:20:05;17.28;74.01
64858;SHT30;51335;51.148;6.950;2022-07-29T02:20:36;17.31;74.22
64858;SHT30;51335;51.148;6.950;2022-07-29T02:21:08;17.33;74.57
64858;SHT30;51335;51.148;6.950;2022-07-29T02:21:39;17.30;74.64
64858;SHT30;51335;51.148;6.950;2022-07-29T02:22:10;17.31;74.69
64858;SHT30;51335;51.148;6.950;2022-07-29T02:22:43;17.36;74.68
64858;SHT30;51335;51.148;6.950;2022-07-29T02:23:18;17.36;74.55
64858;SHT30;51335;51.148;6.950;2022-07-29T02:23:49;17.37;74.38
64858;SHT30;51335;51.148;6.950;2022-07-29T02:24:22;17.36;74.29
64858;SHT30;51335;51.148;6.950;2022-07-29T02:24:53;17.36;74.15
64858;SHT30;51335;51.148;6.950;2022-07-29T02:25:24;17.36;73.78
64858;SHT30;51335;51.148;6.950;2022-07-29T02:25:56;17.37;73.35
64858;SHT30;51335;51.148;6.950;2022-07-29T02:26:27;17.36;72.58
64858;SHT30;51335;51.148;6.950;2022-07-29T02:26:59;17.41;71.62
64858;SHT30;51335;51.148;6.950;2022-07-29T02:27:33;17.45;70.63
64858;SHT30;51335;51.148;6.950;2022-07-29T02:28:06;17.44;70.56
64858;SHT30;51335;51.148;6.950;2022-07-29T02:28:39;17.45;70.49
64858;SHT30;51335;51.148;6.950;2022-07-29T02:29:12;17.44;70.21
64858;SHT30;51335;51.148;6.950;2022-07-29T02:29:45;17.45;70.10
64858;SHT30;51335;51.148;6.950;2022-07-29T02:30:16;17.47;69.97
64858;SHT30;51335;51.148;6.950;2022-07-29T02:30:47;17.47;69.52
64858;SHT30;51335;51.148;6.950;2022-07-29T02:31:23;17.48;69.39
64858;SHT30;51335;51.148;6.950;2022-07-29T02:31:55;17.50;69.24
64858;SHT30;51335;51.148;6.950;2022-07-29T02:32:27;17.48;69.10
64858;SHT30;51335;51.148;6.950;2022-07-29T02:32:59;17.47;69.05
64858;SHT30;51335;51.148;6.950;2022-07-29T02:33:30;17.50;68.97
64858;SHT30;51335;51.148;6.950;2022-07-29T02:34:03;17.50;69.67
64858;SHT30;51335;51.148;6.950;2022-07-29T02:34:35;17.54;71.04
64858;SHT30;51335;51.148;6.950;2022-07-29T02:35:08;17.51;71.20
64858;SHT30;51335;51.148;6.950;2022-07-29T02:35:40;17.53;70.85
64858;SHT30;51335;51.148;6.950;2022-07-29T02:36:11;17.60;70.61
64858;SHT30;51335;51.148;6.950;2022-07-29T02:36:42;17.63;69.91
64858;SHT30;51335;51.148;6.950;2022-07-29T02:37:15;17.68;68.89
64858;SHT30;51335;51.148;6.950;2022-07-29T02:37:47;17.71;68.69
64858;SHT30;51335;51.148;6.950;2022-07-29T02:38:18;17.74;68.59
64858;SHT30;51335;51.148;6.950;2022-07-29T02:38:50;17.81;68.42
64858;SHT30;51335;51.148;6.950;2022-07-29T02:39:22;17.89;68.10
64858;SHT30;51335;51.148;6.950;2022-07-29T02:39:54;17.98;67.50
64858;SHT30;51335;51.148;6.950;2022-07-29T02:40:25;18.05;67.49
64858;SHT30;51335;51.148;6.950;2022-07-29T02:40:56;18.10;67.30
64858;SHT30;51335;51.148;6.950;2022-07-29T02:41:37;18.06;67.17
64858;SHT30;51335;51.148;6.950;2022-07-29T02:42:13;17.99;67.17
64858;SHT30;51335;51.148;6.950;2022-07-29T02:42:46;17.94;67.38
64858;SHT30;51335;51.148;6.950;2022-07-29T02:43:17;17.91;67.59
64858;SHT30;51335;51.148;6.950;2022-07-29T02:43:51;17.89;67.63
64858;SHT30;51335;51.148;6.950;2022-07-29T02:44:25;17.89;67.73
64858;SHT30;51335;51.148;6.950;2022-07-29T02:44:56;17.94;67.77
64858;SHT30;51335;51.148;6.950;2022-07-29T02:45:26;17.98;67.61
64858;SHT30;51335;51.148;6.950;2022-07-29T02:45:58;17.96;67.62
64858;SHT30;51335;51.148;6.950;2022-07-29T02:46:32;17.94;67.69
64858;SHT30;51335;51.148;6.950;2022-07-29T02:47:47;17.89;67.77
64858;SHT30;51335;51.148;6.950;2022-07-29T02:48:19;17.86;67.84
64858;SHT30;51335;51.148;6.950;2022-07-29T02:48:56;17.86;67.90
64858;SHT30;51335;51.148;6.950;2022-07-29T02:49:46;17.86;67.91
64858;SHT30;51335;51.148;6.950;2022-07-29T02:50:29;17.84;67.84
64858;SHT30;51335;51.148;6.950;2022-07-29T02:51:28;17.81;67.91
64858;SHT30;51335;51.148;6.950;2022-07-29T02:52:10;17.82;68.11
64858;SHT30;51335;51.148;6.950;2022-07-29T02:52:45;17.79;67.99
64858;SHT30;51335;51.148;6.950;2022-07-29T02:53:22;17.79;68.05
64858;SHT30;51335;51.148;6.950;2022-07-29T02:53:55;17.78;68.08
64858;SHT30;51335;51.148;6.950;2022-07-29T02:55:20;17.79;68.07
64858;SHT30;51335;51.148;6.950;2022-07-29T02:55:58;17.79;67.95
64858;SHT30;51335;51.148;6.950;2022-07-29T02:56:30;17.79;68.01
64858;SHT30;51335;51.148;6.950;2022-07-29T02:57:09;17.81;67.57
64858;SHT30;51335;51.148;6.950;2022-07-29T02:57:51;17.84;67.37
64858;SHT30;51335;51.148;6.950;2022-07-29T02:58:27;17.85;67.40
64858;SHT30;51335;51.148;6.950;2022-07-29T02:59:02;17.89;67.11
64858;SHT30;51335;51.148;6.950;2022-07-29T02:59:36;17.91;66.88
64858;SHT30;51335;51.148;6.950;2022-07-29T03:00:08;17.91;66.45
64858;SHT30;51335;51.148;6.950;2022-07-29T03:00:40;17.95;66.40
64858;SHT30;51335;51.148;6.950;2022-07-29T03:01:14;17.98;66.44
64858;SHT30;51335;51.148;6.950;2022-07-29T03:01:45;17.99;66.39
64858;SHT30;51335;51.148;6.950;2022-07-29T03:02:16;18.03;66.02
64858;SHT30;51335;51.148;6.950;2022-07-29T03:02:50;18.06;65.80
64858;SHT30;51335;51.148;6.950;2022-07-29T03:03:25;18.09;65.67
64858;SHT30;51335;51.148;6.950;2022-07-29T03:03:55;18.10;65.62
64858;SHT30;51335;51.148;6.950;2022-07-29T03:04:27;18.13;65.35
64858;SHT30;51335;51.148;6.950;2022-07-29T03:04:59;18.12;65.57
64858;SHT30;51335;51.148;6.950;2022-07-29T03:05:32;18.12;65.34
64858;SHT30;51335;51.148;6.950;2022-07-29T03:06:03;18.12;65.44
64858;SHT30;51335;51.148;6.950;2022-07-29T03:06:34;18.10;65.33
64858;SHT30;51335;51.148;6.950;2022-07-29T03:07:05;18.12;65.36
64858;SHT30;51335;51.148;6.950;2022-07-29T03:07:36;18.16;65.13
64858;SHT30;51335;51.148;6.950;2022-07-29T03:08:11;18.16;65.21
64858;SHT30;51335;51.148;6.950;2022-07-29T03:08:42;18.19;64.92
64858;SHT30;51335;51.148;6.950;2022-07-29T03:09:13;18.19;64.73
64858;SHT30;51335;51.148;6.950;2022-07-29T03:09:44;18.19;64.74
64858;SHT30;51335;51.148;6.950;2022-07-29T03:10:16;18.19;64.86
64858;SHT30;51335;51.148;6.950;2022-07-29T03:10:47;18.21;64.55
64858;SHT30;51335;51.148;6.950;2022-07-29T03:11:18;18.22;64.42
64858;SHT30;51335;51.148;6.950;2022-07-29T03:11:49;18.25;64.52
64858;SHT30;51335;51.148;6.950;2022-07-29T03:12:20;18.26;64.57
64858;SHT30;51335;51.148;6.950;2022-07-29T03:12:50;18.26;64.28
64858;SHT30;51335;51.148;6.950;2022-07-29T03:13:22;18.26;64.49
64858;SHT30;51335;51.148;6.950;2022-07-29T03:13:53;18.26;64.55
64858;SHT30;51335;51.148;6.950;2022-07-29T03:14:25;18.25;64.21
64858;SHT30;51335;51.148;6.950;2022-07-29T03:14:56;18.28;64.15
64858;SHT30;51335;51.148;6.950;2022-07-29T03:15:27;18.29;64.22
64858;SHT30;51335;51.148;6.950;2022-07-29T03:15:58;18.30;64.07
64858;SHT30;51335;51.148;6.950;2022-07-29T03:16:29;18.33;64.09
64858;SHT30;51335;51.148;6.950;2022-07-29T03:17:00;18.33;64.00
64858;SHT30;51335;51.148;6.950;2022-07-29T03:17:31;18.32;63.97
64858;SHT30;51335;51.148;6.950;2022-07-29T03:18:02;18.32;63.95
64858;SHT30;51335;51.148;6.950;2022-07-29T03:18:32;18.33;63.91
64858;SHT30;51335;51.148;6.950;2022-07-29T03:19:04;18.36;63.66
64858;SHT30;51335;51.148;6.950;2022-07-29T03:19:35;18.37;63.72
64858;SHT30;51335;51.148;6.950;2022-07-29T03:20:07;18.47;63.68
64858;SHT30;51335;51.148;6.950;2022-07-29T03:20:38;18.46;63.49
64858;SHT30;51335;51.148;6.950;2022-07-29T03:21:09;18.47;63.34
64858;SHT30;51335;51.148;6.950;2022-07-29T03:21:39;18.44;63.26
64858;SHT30;51335;51.148;6.950;2022-07-29T03:22:10;18.49;63.38
64858;SHT30;51335;51.148;6.950;2022-07-29T03:22:43;18.46;63.25
64858;SHT30;51335;51.148;6.950;2022-07-29T03:23:21;18.46;63.28
64858;SHT30;51335;51.148;6.950;2022-07-29T03:23:52;18.40;63.40
64858;SHT30;51335;51.148;6.950;2022-07-29T03:24:30;18.40;63.48
64858;SHT30;51335;51.148;6.950;2022-07-29T03:25:08;18.36;63.55
64858;SHT30;51335;51.148;6.950;2022-07-29T03:25:38;18.37;63.46
64858;SHT30;51335;51.148;6.950;2022-07-29T03:26:09;18.40;63.27
64858;SHT30;51335;51.148;6.950;2022-07-29T03:26:39;18.37;63.21
64858;SHT30;51335;51.148;6.950;2022-07-29T03:27:09;18.40;63.21
64858;SHT30;51335;51.148;6.950;2022-07-29T03:27:40;18.39;63.34
64858;SHT30;51335;51.148;6.950;2022-07-29T03:28:10;18.39;63.29
64858;SHT30;51335;51.148;6.950;2022-07-29T03:28:40;18.42;63.31
64858;SHT30;51335;51.148;6.950;2022-07-29T03:29:11;18.36;63.32
64858;SHT30;51335;51.148;6.950;2022-07-29T03:29:41;18.43;63.35
64858;SHT30;51335;51.148;6.950;2022-07-29T03:30:12;18.42;63.00
64858;SHT30;51335;51.148;6.950;2022-07-29T03:30:42;18.40;63.02
64858;SHT30;51335;51.148;6.950;2022-07-29T03:31:13;18.43;62.97
64858;SHT30;51335;51.148;6.950;2022-07-29T03:31:43;18.42;63.02
64858;SHT30;51335;51.148;6.950;2022-07-29T03:32:13;18.43;62.91
64858;SHT30;51335;51.148;6.950;2022-07-29T03:32:44;18.49;62.71
64858;SHT30;51335;51.148;6.950;2022-07-29T03:33:14;18.47;62.78
64858;SHT30;51335;51.148;6.950;2022-07-29T03:33:44;18.47;62.81
64858;SHT30;51335;51.148;6.950;2022-07-29T03:34:14;18.49;62.65
64858;SHT30;51335;51.148;6.950;2022-07-29T03:34:45;18.52;62.40
64858;SHT30;51335;51.148;6.950;2022-07-29T03:35:15;18.49;62.39
64858;SHT30;51335;51.148;6.950;2022-07-29T03:35:45;18.44;62.60
64858;SHT30;51335;51.148;6.950;2022-07-29T03:36:16;18.42;62.74
64858;SHT30;51335;51.148;6.950;2022-07-29T03:36:47;18.46;62.67
64858;SHT30;51335;51.148;6.950;2022-07-29T03:37:17;18.46;62.78
64858;SHT30;51335;51.148;6.950;2022-07-29T03:37:48;18.47;62.71
64858;SHT30;51335;51.148;6.950;2022-07-29T03:38:19;18.49;62.76
64858;SHT30;51335;51.148;6.950;2022-07-29T03:38:50;18.52;62.60